Terminal Aerodrome Forecast
Issued by NWS Central Illinois

Home | Current Version | Previous Version | Text Only | Print | Product List | Glossary On
Versions: 1 2 3 4 5 6 7 8 9 10 11 12 13 14 15
000
FTUS43 KILX 240544
TAFPIA
TAF
KPIA 240544Z 2406/2506 15005KT P6SM SCT060 BKN100
     FM241300 16012KT P6SM OVC040
     FM241800 18015KT P6SM VCTS SCT025CB BKN040
     FM250100 15012KT 6SM -SHRA VCTS BKN030CB=

USA.gov is the U.S. government's official web portal to all federal, state and local government web resources and services.